Estación Meteorológica Peña el Pijo (Robertgarden) [ 06/25/18 14:03:26 CEST ]

Fecha Hora Presion(HPa) Temp (°C) Humedad % Rocio (°C) Viento ( m/s) Direccion Lluvia 1Hora(mm) Lluvia 24H(mm) LLuvia Total(mm)
2018-Jun-17 01:01:34 1010.500 16.9 62 9.6         266.25
2018-Jun-17 02:02:03 1010.900 15.4 64 8.6         266.25
2018-Jun-17 03:01:37 1010.900 14.9 69 9.3         266.25
2018-Jun-17 04:03:44 1011.300 13.3 72 8.3         266.25
2018-Jun-17 05:01:43 1011.600 12.4 74 7.9         266.25
2018-Jun-17 06:01:50 1011.400 11.5 76 7.4         266.25
2018-Jun-17 07:01:50 1011.500 10.9 77 7.0         266.25
2018-Jun-17 08:01:52 1011.900 13.9 80 10.5         266.25
2018-Jun-17 09:01:55 1012.400 19.9 64 12.9         266.25
2018-Jun-17 10:01:39 1012.400 25.2 47 13.1         266.25
2018-Jun-17 11:01:57 1012.300 28.6 39 13.3         266.25
2018-Jun-17 12:01:44 1012.500 31.3 34 13.4         266.25
2018-Jun-17 13:02:07 1012.700 31.6 33 13.3         266.25
2018-Jun-17 14:01:31 1012.500 30.4 33 12.2         266.25
2018-Jun-17 15:01:52 1012.100 28.2 36 11.6         266.25
2018-Jun-17 16:01:42 1012.300 29.9 34 12.3         266.25
2018-Jun-17 17:01:51 1012.300 29.0 34 11.5         266.25
2018-Jun-17 18:01:48 1012.200 29.7 33 11.6 2.3 SSE     266.25
2018-Jun-17 19:01:39 1012.200 31.1 31 11.9         266.25
2018-Jun-17 20:02:10 1012.600 28.9 33 10.9         266.25
2018-Jun-17 21:01:47 1012.900 24.6 40 10.1         266.25
2018-Jun-17 22:01:32 1013.500 20.8 50 10.0         266.25
2018-Jun-17 23:01:47 1014.200 17.8 58 9.4         266.25

Temperatura Máxima:31°    Temperatura Mínima:10°
Presión Máxima:1014.200 Hpa    Presión Mínima:1010.500 Hpa


Volver